createdAt,value
2019-04-05T00:00:13.482Z,93728.56
2019-04-05T00:02:43.047Z,93724.64
2019-04-05T00:05:12.862Z,93716.38
2019-04-05T00:07:42.360Z,93721.41
2019-04-05T00:10:12.668Z,93723.03
2019-04-05T00:12:42.151Z,93729.19
2019-04-05T00:15:15.739Z,93742.16
2019-04-05T00:17:43.011Z,93740.86
2019-04-05T00:20:14.685Z,93739.09
2019-04-05T00:22:44.233Z,93738.92
2019-04-05T00:25:13.881Z,93737.45
2019-04-05T00:27:43.403Z,93737.64
2019-04-05T00:30:13.216Z,93738.61
2019-04-05T00:32:42.705Z,93740.88
2019-04-05T00:35:12.301Z,93741.53
2019-04-05T00:37:41.787Z,93748.64
2019-04-05T00:40:12.795Z,93749.12
2019-04-05T00:42:42.292Z,93752.20
2019-04-05T00:45:12.148Z,93745.72
2019-04-05T00:47:42.892Z,93752.53
2019-04-05T00:50:12.837Z,93745.75
2019-04-05T00:52:42.332Z,93745.08
2019-04-05T00:55:12.372Z,93744.10
2019-04-05T00:57:41.934Z,93742.00
2019-04-05T01:00:12.640Z,93738.60
2019-04-05T01:02:42.128Z,93734.71
2019-04-05T01:05:11.975Z,93732.91
2019-04-05T01:07:41.621Z,93729.67
2019-04-05T01:10:11.853Z,93729.34
2019-04-05T01:12:41.880Z,93729.52
2019-04-05T01:15:12.233Z,93734.53
2019-04-05T01:17:41.783Z,93739.58
2019-04-05T01:20:13.232Z,93739.25
2019-04-05T01:22:44.684Z,93743.13
2019-04-05T01:25:15.797Z,93741.51
2019-04-05T01:27:48.252Z,93737.30
2019-04-05T01:30:16.927Z,93736.67
2019-04-05T01:32:47.474Z,93731.46
2019-04-05T01:35:17.077Z,93723.03
2019-04-05T01:37:47.626Z,93730.97
2019-04-05T01:40:17.673Z,93732.59
2019-04-05T01:42:47.495Z,93732.43
2019-04-05T01:45:17.239Z,93732.94
2019-04-05T01:47:46.719Z,93735.20
2019-04-05T01:50:16.365Z,93741.52
2019-04-05T01:52:46.530Z,93744.12
2019-04-05T01:55:16.070Z,93743.77
2019-04-05T01:57:45.554Z,93743.63
2019-04-05T02:00:15.475Z,93735.20
2019-04-05T02:02:45.182Z,93746.07
2019-04-05T02:05:14.972Z,93749.95
2019-04-05T02:07:44.551Z,93753.68
2019-04-05T02:10:14.685Z,93749.94
2019-04-05T02:12:44.190Z,93743.95
2019-04-05T02:15:27.613Z,93741.53
2019-04-05T02:17:57.848Z,93747.36
2019-04-05T02:20:27.586Z,93751.56
2019-04-05T02:22:57.256Z,93747.85
2019-04-05T02:25:26.910Z,93751.56
2019-04-05T02:27:56.757Z,93753.50
2019-04-05T02:30:26.754Z,93753.50
2019-04-05T02:32:56.326Z,93745.55
2019-04-05T02:35:25.956Z,93746.66
2019-04-05T02:37:55.454Z,93744.73
2019-04-05T02:40:26.945Z,93745.70
2019-04-05T02:42:58.865Z,93751.55
2019-04-05T02:45:32.469Z,93744.70
2019-04-05T02:48:05.213Z,93750.42
2019-04-05T02:50:37.512Z,93763.58
2019-04-05T02:53:09.490Z,93767.30
2019-04-05T02:55:40.899Z,93756.44
2019-04-05T02:58:12.456Z,93747.19
2019-04-05T03:00:42.679Z,93745.57
2019-04-05T03:03:12.516Z,93752.55
2019-04-05T03:05:42.164Z,93758.86
2019-04-05T03:08:12.036Z,93757.88
2019-04-05T03:10:57.063Z,93764.55
2019-04-05T03:13:29.910Z,93766.16
2019-04-05T03:16:03.424Z,93762.93
2019-04-05T03:18:34.552Z,93764.55
2019-04-05T03:21:07.547Z,93762.77
2019-04-05T03:23:41.431Z,93757.73
2019-04-05T03:26:14.656Z,93764.85
2019-04-05T03:28:47.771Z,93767.78
2019-04-05T03:31:23.954Z,93761.95
2019-04-05T03:33:49.307Z,93755.64
2019-04-05T03:36:19.366Z,93761.61
2019-04-05T03:38:49.001Z,93752.05
2019-04-05T03:41:19.025Z,93756.77
2019-04-05T03:43:49.984Z,93754.66
2019-04-05T03:46:20.230Z,93757.89
2019-04-05T03:48:50.814Z,93758.55
2019-04-05T03:51:21.001Z,93760.00
2019-04-05T03:53:50.647Z,93753.99
2019-04-05T03:56:20.652Z,93741.52
2019-04-05T03:58:50.227Z,93747.67
2019-04-05T04:01:19.959Z,93751.56
2019-04-05T04:03:49.801Z,93752.38
2019-04-05T04:06:19.419Z,93746.38
2019-04-05T04:08:49.176Z,93742.16
2019-04-05T04:11:18.805Z,93749.13
2019-04-05T04:13:48.446Z,93751.23
2019-04-05T04:16:18.204Z,93748.17
2019-04-05T04:18:47.870Z,93746.55
2019-04-05T04:21:53.332Z,93738.93
2019-04-05T04:24:22.961Z,93749.61
2019-04-05T04:26:53.014Z,93765.52
2019-04-05T04:29:23.867Z,93772.81
2019-04-05T04:31:53.423Z,93766.50
2019-04-05T04:34:23.002Z,93770.53
2019-04-05T04:36:53.029Z,93772.50
2019-04-05T04:39:22.792Z,93766.33
2019-04-05T04:41:52.810Z,93763.41
2019-04-05T04:44:22.555Z,93762.09
2019-04-05T04:46:52.380Z,93760.16
2019-04-05T04:49:22.126Z,93763.72
2019-04-05T04:51:53.254Z,93759.19
2019-04-05T04:54:22.821Z,93759.02
2019-04-05T04:56:52.766Z,93764.06
2019-04-05T04:59:23.146Z,93762.59
2019-04-05T05:01:53.374Z,93756.28
2019-04-05T05:04:22.966Z,93767.76
2019-04-05T05:06:52.594Z,93756.73
2019-04-05T05:09:22.215Z,93759.03
2019-04-05T05:11:51.984Z,93764.20
2019-04-05T05:14:21.664Z,93765.17
2019-04-05T05:16:51.304Z,93765.48
2019-04-05T05:19:20.803Z,93767.45
2019-04-05T05:21:51.774Z,93760.30
2019-04-05T05:24:21.423Z,93766.47
2019-04-05T05:26:51.135Z,93771.64
2019-04-05T05:29:21.635Z,93779.92
2019-04-05T05:31:51.314Z,93775.06
2019-04-05T05:34:21.053Z,93778.96
2019-04-05T05:36:50.631Z,93781.23
2019-04-05T05:39:20.568Z,93778.14
2019-04-05T05:41:50.121Z,93785.12
2019-04-05T05:44:19.758Z,93782.67
2019-04-05T05:46:49.350Z,93776.34
2019-04-05T05:49:18.886Z,93779.56
2019-04-05T05:51:49.455Z,93773.73
2019-04-05T05:54:18.921Z,93773.59
2019-04-05T05:56:48.421Z,93777.98
2019-04-05T05:59:17.925Z,93779.57
2019-04-05T06:01:47.424Z,93779.55
2019-04-05T06:04:16.925Z,93777.73
2019-04-05T06:06:46.410Z,93773.62
2019-04-05T06:09:15.948Z,93773.42
2019-04-05T06:11:45.438Z,93770.94
2019-04-05T06:14:14.932Z,93762.45
2019-04-05T06:16:46.650Z,93764.88
2019-04-05T06:19:15.727Z,93762.30
2019-04-05T06:21:45.246Z,93759.78
2019-04-05T06:24:14.782Z,93752.52
2019-04-05T06:26:44.264Z,93756.05
2019-04-05T06:29:13.775Z,93755.40
2019-04-05T06:31:43.294Z,93753.30
2019-04-05T06:34:12.820Z,93758.45
2019-04-05T06:36:42.522Z,93751.33
2019-04-05T06:39:12.066Z,93756.06
2019-04-05T06:41:41.564Z,93759.91
2019-04-05T06:44:11.105Z,93759.02
2019-04-05T06:46:40.585Z,93761.84
2019-04-05T06:49:10.663Z,93765.26
2019-04-05T06:51:40.134Z,93765.92
2019-04-05T06:54:09.673Z,93769.00
2019-04-05T06:56:39.156Z,93763.80
2019-04-05T06:59:08.657Z,93763.92
2019-04-05T07:01:38.227Z,93768.27
2019-04-05T07:04:07.736Z,93769.77
2019-04-05T07:06:37.230Z,93766.34
2019-04-05T07:09:07.536Z,93772.08
2019-04-05T07:11:37.025Z,93771.69
2019-04-05T07:14:07.060Z,93772.13
2019-04-05T07:16:37.486Z,93769.92
2019-04-05T07:19:07.024Z,93770.74
2019-04-05T07:21:36.514Z,93779.01
2019-04-05T07:24:06.126Z,93768.84
2019-04-05T07:26:35.623Z,93770.54
2019-04-05T07:29:05.467Z,93772.91
2019-04-05T07:31:34.956Z,93770.93
2019-04-05T07:34:04.591Z,93760.77
2019-04-05T07:36:34.081Z,93761.95
2019-04-05T07:39:05.751Z,93769.61
2019-04-05T07:41:35.232Z,93776.05
2019-04-05T07:44:04.823Z,93767.00
2019-04-05T07:46:34.343Z,93773.64
2019-04-05T07:49:03.860Z,93769.91
2019-04-05T07:51:33.356Z,93768.35
2019-04-05T07:54:02.841Z,93777.14
2019-04-05T07:56:32.353Z,93775.44
2019-04-05T07:59:01.876Z,93778.42
2019-04-05T08:01:31.370Z,93772.69
2019-04-05T08:04:00.878Z,93772.29
2019-04-05T08:06:34.550Z,93769.79
2019-04-05T08:09:10.851Z,93769.98
2019-04-05T08:11:43.251Z,93769.80
2019-04-05T08:14:13.768Z,93769.50
2019-04-05T08:16:43.411Z,93762.75
2019-04-05T08:19:12.919Z,93760.03
2019-04-05T08:21:42.410Z,93765.84
2019-04-05T08:24:12.012Z,93763.61
2019-04-05T08:26:41.510Z,93760.40
2019-04-05T08:29:11.037Z,93762.39
2019-04-05T08:31:40.516Z,93757.17
2019-04-05T08:34:10.030Z,93761.67
2019-04-05T08:36:39.537Z,93765.92
2019-04-05T08:39:09.539Z,93768.84
2019-04-05T08:41:39.024Z,93768.45
2019-04-05T08:44:08.620Z,93769.20
2019-04-05T08:46:38.136Z,93768.99
2019-04-05T08:49:10.875Z,93777.13
2019-04-05T08:51:38.970Z,93780.08
2019-04-05T08:54:08.467Z,93767.80
2019-04-05T08:56:37.986Z,93773.91
2019-04-05T08:59:07.493Z,93760.63
2019-04-05T09:01:37.016Z,93767.72
2019-04-05T09:04:06.570Z,93765.21
2019-04-05T09:06:36.109Z,93762.53
2019-04-05T09:09:07.676Z,93760.61
2019-04-05T09:11:37.193Z,93760.06
2019-04-05T09:14:06.751Z,93761.44
2019-04-05T09:16:36.290Z,93761.45
2019-04-05T09:19:05.765Z,93756.65
2019-04-05T09:21:40.210Z,93758.82
2019-04-05T09:24:06.653Z,93753.84
2019-04-05T09:26:36.165Z,93750.55
2019-04-05T09:29:05.793Z,93754.34
2019-04-05T09:31:35.301Z,93751.69
2019-04-05T09:34:04.866Z,93750.11
2019-04-05T09:36:34.366Z,93753.55
2019-04-05T09:39:07.035Z,93750.26
2019-04-05T09:41:40.053Z,93740.67
2019-04-05T09:44:09.605Z,93740.41
2019-04-05T09:46:46.982Z,93743.20
2019-04-05T09:49:10.344Z,93733.14
2019-04-05T09:51:39.919Z,93738.53
2019-04-05T09:54:09.458Z,93736.14
2019-04-05T09:56:38.974Z,93741.98
2019-04-05T09:59:08.561Z,93743.31
2019-04-05T10:01:38.129Z,93743.46
2019-04-05T10:04:07.634Z,93739.59
2019-04-05T10:06:37.157Z,93739.98
2019-04-05T10:09:08.981Z,93741.31
2019-04-05T10:11:38.500Z,93731.84
2019-04-05T10:14:08.057Z,93727.41
2019-04-05T10:16:37.568Z,93726.23
2019-04-05T10:19:07.130Z,93724.55
2019-04-05T10:21:36.636Z,93725.52
2019-04-05T10:24:06.201Z,93724.14
2019-04-05T10:26:35.717Z,93729.00
2019-04-05T10:29:05.202Z,93730.83
2019-04-05T10:31:34.724Z,93722.20
2019-04-05T10:34:04.222Z,93722.69
2019-04-05T10:36:33.735Z,93719.53
2019-04-05T10:39:04.797Z,93725.52
2019-04-05T10:41:34.302Z,93716.78
2019-04-05T10:44:03.974Z,93719.92
2019-04-05T10:46:33.716Z,93715.31
2019-04-05T10:49:03.206Z,93709.35
2019-04-05T10:51:32.725Z,93709.45
2019-04-05T10:54:02.217Z,93708.14
2019-04-05T10:56:31.726Z,93703.58
2019-04-05T10:59:01.226Z,93703.05
2019-04-05T11:01:30.764Z,93705.09
2019-04-05T11:04:00.449Z,93700.55
2019-04-05T11:06:29.959Z,93702.91
2019-04-05T11:08:59.455Z,93694.30
2019-04-05T11:11:29.000Z,93689.22
2019-04-05T11:13:58.484Z,93692.91
2019-04-05T11:16:29.269Z,93689.37
2019-04-05T11:19:01.977Z,93682.92
2019-04-05T11:21:30.158Z,93686.58
2019-04-05T11:24:00.885Z,93686.45
2019-04-05T11:26:30.395Z,93684.81
2019-04-05T11:28:59.904Z,93683.26
2019-04-05T11:31:29.583Z,93682.83
2019-04-05T11:33:59.439Z,93673.00
2019-04-05T11:36:29.210Z,93675.66
2019-04-05T11:38:58.939Z,93674.55
2019-04-05T11:41:29.190Z,93679.35
2019-04-05T11:44:00.736Z,93675.23
2019-04-05T11:46:32.161Z,93663.12
2019-04-05T11:49:03.740Z,93663.14
2019-04-05T11:51:33.927Z,93668.45
2019-04-05T11:54:03.484Z,93663.03
2019-04-05T11:56:33.015Z,93661.80
2019-04-05T11:59:04.220Z,93665.34
2019-04-05T12:01:38.277Z,93661.03
2019-04-05T12:04:07.763Z,93663.06
2019-04-05T12:06:37.282Z,93664.12
2019-04-05T12:09:08.688Z,93663.44
2019-04-05T12:11:38.499Z,93661.13
2019-04-05T12:14:08.364Z,93660.75
2019-04-05T12:16:37.874Z,93660.00
2019-04-05T12:19:07.477Z,93661.58
2019-04-05T12:21:36.992Z,93657.09
2019-04-05T12:24:06.506Z,93657.59
2019-04-05T12:26:36.773Z,93649.38
2019-04-05T12:29:06.335Z,93652.83
2019-04-05T12:31:35.828Z,93650.60
2019-04-05T12:34:05.437Z,93656.08
2019-04-05T12:36:34.953Z,93651.57
2019-04-05T12:39:08.227Z,93648.20
2019-04-05T12:41:38.509Z,93651.33
2019-04-05T12:44:09.211Z,93647.20
2019-04-05T12:46:38.721Z,93649.41
2019-04-05T12:49:08.201Z,93641.74
2019-04-05T12:51:37.835Z,93634.69
2019-04-05T12:54:07.344Z,93638.92
2019-04-05T12:56:36.855Z,93630.16
2019-04-05T12:59:06.375Z,93629.35
2019-04-05T13:01:35.864Z,93628.85
2019-04-05T13:04:06.166Z,93625.02
2019-04-05T13:06:35.651Z,93614.77
2019-04-05T13:09:08.965Z,93619.66
2019-04-05T13:11:38.473Z,93619.58
2019-04-05T13:14:08.017Z,93621.64
2019-04-05T13:16:37.920Z,93613.20
2019-04-05T13:19:07.472Z,93612.84
2019-04-05T13:21:36.991Z,93610.42
2019-04-05T13:24:09.435Z,93607.30
2019-04-05T13:26:37.816Z,93606.16
2019-04-05T13:29:07.343Z,93608.05
2019-04-05T13:31:36.825Z,93608.83
2019-04-05T13:34:06.393Z,93599.80
2019-04-05T13:36:35.914Z,93598.61
2019-04-05T13:39:07.847Z,93593.95
2019-04-05T13:41:37.335Z,93594.44
2019-04-05T13:44:06.848Z,93593.13
2019-04-05T13:46:39.111Z,93597.49
2019-04-05T13:49:10.314Z,93598.45
2019-04-05T13:51:41.731Z,93601.32
2019-04-05T13:54:10.963Z,93599.19
2019-04-05T13:56:41.442Z,93596.39
2019-04-05T13:59:11.377Z,93588.99
2019-04-05T14:01:40.875Z,93594.39
2019-04-05T14:04:10.429Z,93590.25
2019-04-05T14:06:39.920Z,93590.91
2019-04-05T14:09:10.463Z,93589.66
2019-04-05T14:11:40.379Z,93581.22
2019-04-05T14:14:12.082Z,93586.30
2019-04-05T14:16:42.937Z,93580.56
2019-04-05T14:19:12.395Z,93577.68
2019-04-05T14:21:47.309Z,93577.90
2019-04-05T14:24:13.148Z,93577.28
2019-04-05T14:26:43.724Z,93577.38
2019-04-05T14:29:14.089Z,93577.89
2019-04-05T14:31:43.614Z,93569.28
2019-04-05T14:34:13.229Z,93570.75
2019-04-05T14:36:42.723Z,93560.28
2019-04-05T14:39:12.408Z,93564.48
2019-04-05T14:41:42.399Z,93561.42
2019-04-05T14:44:14.502Z,93558.11
2019-04-05T14:46:43.171Z,93558.45
2019-04-05T14:49:12.728Z,93562.59
2019-04-05T14:51:52.555Z,93568.44
2019-04-05T14:54:13.605Z,93558.70
2019-04-05T14:56:43.167Z,93558.39
2019-04-05T14:59:12.708Z,93554.33
2019-04-05T15:01:42.204Z,93558.13
2019-04-05T15:04:12.172Z,93558.27
2019-04-05T15:06:41.792Z,93563.73
2019-04-05T15:09:11.314Z,93563.10
2019-04-05T15:11:40.855Z,93563.89
2019-04-05T15:14:10.341Z,93569.02
2019-04-05T15:16:39.870Z,93571.39
2019-04-05T15:19:09.413Z,93570.66
2019-04-05T15:21:39.444Z,93567.10
2019-04-05T15:24:09.058Z,93567.00
2019-04-05T15:26:38.628Z,93564.98
2019-04-05T15:29:08.114Z,93564.37
2019-04-05T15:31:37.697Z,93569.61
2019-04-05T15:34:08.278Z,93559.84
2019-04-05T15:36:37.855Z,93564.37
2019-04-05T15:39:09.659Z,93564.77
2019-04-05T15:41:39.734Z,93570.73
2019-04-05T15:44:09.224Z,93569.31
2019-04-05T15:46:38.773Z,93571.55
2019-04-05T15:49:08.267Z,93565.98
2019-04-05T15:51:39.548Z,93563.17
2019-04-05T15:54:09.045Z,93560.25
2019-04-05T15:56:39.187Z,93564.47
2019-04-05T15:59:08.731Z,93567.80
2019-04-05T16:01:39.517Z,93562.24
2019-04-05T16:04:09.269Z,93564.98
2019-04-05T16:06:39.198Z,93569.91
2019-04-05T16:09:10.496Z,93563.98
2019-04-05T16:11:40.080Z,93568.92
2019-04-05T16:14:09.572Z,93567.39
2019-04-05T16:16:39.088Z,93566.89
2019-04-05T16:19:08.579Z,93569.72
2019-04-05T16:21:38.097Z,93574.64
2019-04-05T16:24:07.619Z,93576.01
2019-04-05T16:26:37.188Z,93576.41
2019-04-05T16:29:06.750Z,93569.88
2019-04-05T16:31:36.258Z,93575.10
2019-04-05T16:34:05.864Z,93579.83
2019-04-05T16:36:35.406Z,93574.61
2019-04-05T16:39:08.771Z,93581.45
2019-04-05T16:41:38.872Z,93577.79
2019-04-05T16:44:08.443Z,93586.38
2019-04-05T16:46:37.950Z,93581.30
2019-04-05T16:49:07.467Z,93589.38
2019-04-05T16:51:36.985Z,93581.86
2019-04-05T16:54:07.202Z,93584.31
2019-04-05T16:56:36.704Z,93588.66
2019-04-05T16:59:06.414Z,93584.71
2019-04-05T17:01:35.921Z,93585.63
2019-04-05T17:04:05.418Z,93581.42
2019-04-05T17:06:35.360Z,93587.78
2019-04-05T17:09:08.434Z,93588.28
2019-04-05T17:11:38.025Z,93588.48
2019-04-05T17:14:08.186Z,93589.96
2019-04-05T17:16:37.725Z,93593.44
2019-04-05T17:19:07.216Z,93601.45
2019-04-05T17:21:36.724Z,93590.20
2019-04-05T17:24:06.242Z,93591.77
2019-04-05T17:26:35.769Z,93594.77
2019-04-05T17:29:05.357Z,93599.70
2019-04-05T17:31:34.868Z,93606.75
2019-04-05T17:34:04.454Z,93607.72
2019-04-05T17:36:34.002Z,93610.81
2019-04-05T17:39:05.261Z,93619.80
2019-04-05T17:41:36.434Z,93611.59
2019-04-05T17:44:06.058Z,93612.17
2019-04-05T17:46:35.580Z,93619.02
2019-04-05T17:49:05.140Z,93625.23
2019-04-05T17:51:34.715Z,93626.42
2019-04-05T17:54:04.345Z,93629.30
2019-04-05T17:56:33.912Z,93629.06
2019-04-05T17:59:04.046Z,93628.25
2019-04-05T18:01:33.555Z,93630.31
2019-04-05T18:04:03.082Z,93630.63
2019-04-05T18:06:32.586Z,93625.25
2019-04-05T18:09:02.085Z,93638.03
2019-04-05T18:11:31.670Z,93637.18
2019-04-05T18:14:01.167Z,93644.49
2019-04-05T18:16:30.682Z,93645.80
2019-04-05T18:19:00.184Z,93648.86
2019-04-05T18:21:29.685Z,93657.50
2019-04-05T18:23:59.183Z,93660.95
2019-04-05T18:26:28.728Z,93661.85
2019-04-05T18:28:58.267Z,93660.63
2019-04-05T18:31:28.251Z,93665.50
2019-04-05T18:33:57.735Z,93674.73
2019-04-05T18:36:27.230Z,93679.16
2019-04-05T18:38:56.725Z,93676.80
2019-04-05T18:41:26.316Z,93677.78
2019-04-05T18:43:55.852Z,93676.80
2019-04-05T18:46:25.430Z,93688.00
2019-04-05T18:48:54.943Z,93697.04
2019-04-05T18:51:25.706Z,93698.61
2019-04-05T18:53:55.201Z,93700.47
2019-04-05T18:56:24.687Z,93702.47
2019-04-05T18:58:54.211Z,93699.63
2019-04-05T19:01:23.712Z,93709.56
2019-04-05T19:03:54.470Z,93714.66
2019-04-05T19:06:24.084Z,93715.67
2019-04-05T19:08:53.606Z,93710.52
2019-04-05T19:11:23.164Z,93713.45
2019-04-05T19:14:00.961Z,93709.89
2019-04-05T19:16:23.954Z,93720.16
2019-04-05T19:18:53.495Z,93725.84
2019-04-05T19:21:23.017Z,93723.51
2019-04-05T19:23:52.523Z,93727.55
2019-04-05T19:26:22.019Z,93732.66
2019-04-05T19:28:51.599Z,93736.94
2019-04-05T19:49:00.780Z,93745.47
2019-04-05T19:51:30.271Z,93748.91
2019-04-05T19:54:01.263Z,93746.31
2019-04-05T19:56:31.052Z,93748.75
2019-04-05T19:59:00.569Z,93748.63
2019-04-05T20:01:30.087Z,93747.98
2019-04-05T20:03:59.621Z,93746.05
2019-04-05T20:06:29.102Z,93751.58
2019-04-05T20:08:58.615Z,93756.58
2019-04-05T20:11:28.112Z,93763.55
2019-04-05T20:13:57.731Z,93762.28
2019-04-05T20:16:28.626Z,93762.45
2019-04-05T20:18:58.239Z,93769.73
2019-04-05T20:21:27.779Z,93771.34
2019-04-05T20:23:57.282Z,93771.03
2019-04-05T20:26:27.795Z,93772.48
2019-04-05T20:28:57.299Z,93775.06
2019-04-05T20:31:26.803Z,93776.07
2019-04-05T20:33:56.312Z,93780.45
2019-04-05T20:36:25.827Z,93781.72
2019-04-05T20:38:56.030Z,93778.98
2019-04-05T20:41:25.527Z,93783.69
2019-04-05T20:43:55.047Z,93787.72
2019-04-05T20:46:24.549Z,93794.22
2019-04-05T20:48:54.064Z,93789.19
2019-04-05T20:51:23.566Z,93785.62
2019-04-05T20:53:53.065Z,93792.61
2019-04-05T20:56:22.561Z,93786.42
2019-04-05T20:58:52.079Z,93781.73
2019-04-05T21:01:21.577Z,93780.77
2019-04-05T21:03:51.112Z,93782.07
2019-04-05T21:06:20.634Z,93780.44
2019-04-05T21:08:50.143Z,93781.25
2019-04-05T21:11:19.784Z,93784.98
2019-04-05T21:13:49.303Z,93785.94
2019-04-05T21:16:20.194Z,93783.69
2019-04-05T21:18:49.715Z,93785.59
2019-04-05T21:21:19.398Z,93782.16
2019-04-05T21:23:48.916Z,93788.63
2019-04-05T21:26:18.429Z,93796.56
2019-04-05T21:28:48.815Z,93793.05
2019-04-05T21:31:18.335Z,93795.41
2019-04-05T21:33:48.099Z,93786.91
2019-04-05T21:36:17.629Z,93784.13
2019-04-05T21:38:47.138Z,93785.39
2019-04-05T21:41:16.999Z,93794.73
2019-04-05T21:43:46.553Z,93800.39
2019-04-05T21:46:16.029Z,93801.97
2019-04-05T21:48:45.538Z,93799.05
2019-04-05T21:51:15.050Z,93802.56
2019-04-05T21:53:47.369Z,93804.94
2019-04-05T21:56:16.452Z,93804.75
2019-04-05T21:58:45.978Z,93809.94
2019-04-05T22:01:15.652Z,93802.19
2019-04-05T22:03:45.169Z,93806.88
2019-04-05T22:06:14.757Z,93800.89
2019-04-05T22:08:44.300Z,93799.41
2019-04-05T22:11:13.810Z,93797.46
2019-04-05T22:13:43.336Z,93804.73
2019-04-05T22:16:14.090Z,93795.80
2019-04-05T22:18:43.713Z,93800.48
2019-04-05T22:21:13.226Z,93811.33
2019-04-05T22:23:42.768Z,93809.47
2019-04-05T22:26:12.248Z,93809.19
2019-04-05T22:28:41.743Z,93804.30
2019-04-05T22:31:11.910Z,93806.24
2019-04-05T22:33:41.404Z,93802.47
2019-04-05T22:36:10.949Z,93798.88
2019-04-05T22:38:40.438Z,93795.75
2019-04-05T22:41:09.944Z,93806.05
2019-04-05T22:43:40.117Z,93804.89
2019-04-05T22:46:09.628Z,93806.77
2019-04-05T22:48:39.151Z,93811.05
2019-04-05T22:51:08.695Z,93817.48
2019-04-05T22:53:38.190Z,93815.45
2019-04-05T22:56:07.700Z,93817.34
2019-04-05T22:58:37.222Z,93812.59
2019-04-05T23:01:06.735Z,93814.70
2019-04-05T23:03:36.228Z,93809.48
2019-04-05T23:06:05.763Z,93820.13
2019-04-05T23:08:36.510Z,93817.84
2019-04-05T23:11:06.016Z,93828.83
2019-04-05T23:13:35.513Z,93825.20
2019-04-05T23:16:05.012Z,93823.25
2019-04-05T23:18:34.574Z,93830.06
2019-04-05T23:21:05.413Z,93840.19
2019-04-05T23:23:34.948Z,93841.17
2019-04-05T23:26:04.588Z,93840.60
2019-04-05T23:28:34.074Z,93839.47
2019-04-05T23:31:03.586Z,93845.59
2019-04-05T23:33:34.026Z,93842.94
2019-04-05T23:36:03.628Z,93840.70
2019-04-05T23:38:33.139Z,93845.16
2019-04-05T23:41:04.304Z,93840.13
2019-04-05T23:43:33.936Z,93844.63
2019-04-05T23:46:03.470Z,93845.29
2019-04-05T23:48:32.978Z,93840.94
2019-04-05T23:51:02.498Z,93836.90
2019-04-05T23:53:32.081Z,93840.19
2019-04-05T23:56:01.602Z,93838.42
2019-04-05T23:58:31.097Z,93834.12
